createdAt,value
2022-11-30T00:03:48.803Z,26.20
2022-11-30T00:06:22.928Z,26.20
2022-11-30T00:08:54.197Z,31.35
2022-11-30T00:11:21.995Z,28.55
2022-11-30T00:13:49.174Z,33.30
2022-11-30T00:16:16.216Z,29.05
2022-11-30T00:18:43.133Z,28.88
2022-11-30T00:21:12.942Z,26.45
2022-11-30T00:23:41.833Z,27.13
2022-11-30T00:26:11.321Z,26.50
2022-11-30T00:28:39.344Z,27.42
2022-11-30T00:31:12.710Z,29.45
2022-11-30T00:33:40.890Z,27.02
2022-11-30T00:36:12.153Z,31.27
2022-11-30T00:38:39.836Z,27.38
2022-11-30T00:41:07.088Z,32.22
2022-11-30T00:43:34.201Z,25.45
2022-11-30T00:46:03.640Z,25.65
2022-11-30T00:48:30.731Z,28.42
2022-11-30T00:50:57.861Z,29.20
2022-11-30T00:53:24.718Z,30.38
2022-11-30T00:55:51.481Z,35.88
2022-11-30T00:58:18.562Z,24.95
2022-11-30T01:03:12.854Z,28.40
2022-11-30T01:05:40.122Z,24.20
2022-11-30T01:08:12.318Z,26.88
2022-11-30T01:10:42.999Z,24.13
2022-11-30T01:13:14.422Z,23.40
2022-11-30T01:15:43.927Z,29.27
2022-11-30T01:18:14.255Z,28.02
2022-11-30T01:20:42.848Z,28.65
2022-11-30T01:23:10.501Z,24.38
2022-11-30T01:25:37.762Z,26.67
2022-11-30T01:28:04.822Z,27.83
2022-11-30T01:30:31.728Z,23.23
2022-11-30T01:33:05.018Z,21.60
2022-11-30T01:35:31.877Z,25.88
2022-11-30T01:37:58.767Z,28.60
2022-11-30T01:40:25.545Z,27.52
2022-11-30T01:42:52.555Z,22.75
2022-11-30T01:45:19.322Z,25.85
2022-11-30T01:47:52.959Z,27.23
2022-11-30T01:50:34.544Z,29.30
2022-11-30T01:53:02.878Z,24.45
2022-11-30T01:55:37.111Z,26.27
2022-11-30T01:58:12.164Z,27.95
2022-11-30T02:00:41.666Z,28.88
2022-11-30T02:03:24.703Z,25.83
2022-11-30T02:05:51.547Z,25.88
2022-11-30T02:08:19.438Z,29.48
2022-11-30T02:10:53.282Z,29.08
2022-11-30T02:13:38.702Z,33.28
2022-11-30T02:16:24.271Z,25.02
2022-11-30T02:19:10.101Z,26.48
2022-11-30T02:21:42.843Z,29.15
2022-11-30T02:24:40.553Z,25.27
2022-11-30T02:27:19.350Z,29.92
2022-11-30T02:29:49.653Z,26.70
2022-11-30T02:32:34.494Z,22.23
2022-11-30T02:35:04.166Z,19.88
2022-11-30T02:37:32.010Z,25.35
2022-11-30T02:39:58.808Z,24.08
2022-11-30T02:42:25.760Z,27.45
2022-11-30T02:47:41.969Z,25.40
2022-11-30T02:50:18.724Z,24.95
2022-11-30T02:52:46.781Z,27.50
2022-11-30T02:55:17.393Z,26.67
2022-11-30T02:57:44.235Z,24.10
2022-11-30T03:00:12.757Z,25.30
2022-11-30T03:02:40.718Z,22.95
2022-11-30T03:05:08.797Z,37.40
2022-11-30T03:07:35.730Z,31.48
2022-11-30T03:12:29.669Z,22.02
2022-11-30T03:14:56.473Z,24.85
2022-11-30T03:17:23.459Z,27.60
2022-11-30T03:19:50.317Z,24.50
2022-11-30T03:22:17.013Z,27.65
2022-11-30T03:24:44.292Z,26.38
2022-11-30T03:27:12.342Z,24.05
2022-11-30T03:29:39.409Z,25.52
2022-11-30T03:32:06.736Z,26.75
2022-11-30T03:34:33.784Z,20.95
2022-11-30T03:37:00.709Z,29.10
2022-11-30T03:39:27.482Z,22.77
2022-11-30T03:41:54.273Z,22.90
2022-11-30T03:44:21.288Z,21.23
2022-11-30T03:49:15.230Z,29.17
2022-11-30T03:51:42.038Z,23.30
2022-11-30T03:54:08.837Z,23.48
2022-11-30T03:56:35.692Z,24.25
2022-11-30T03:59:02.540Z,21.30
2022-11-30T04:01:29.465Z,24.23
2022-11-30T04:03:56.290Z,29.77
2022-11-30T04:06:23.091Z,25.50
2022-11-30T04:08:50.101Z,23.15
2022-11-30T04:11:17.254Z,27.90
2022-11-30T04:13:46.030Z,21.25
2022-11-30T04:16:12.841Z,24.65
2022-11-30T04:21:07.516Z,25.48
2022-11-30T04:23:36.769Z,31.67
2022-11-30T04:26:05.340Z,22.17
2022-11-30T04:28:32.493Z,21.50
2022-11-30T04:31:00.924Z,24.55
2022-11-30T04:33:28.495Z,21.23
2022-11-30T04:35:58.154Z,25.70
2022-11-30T04:38:25.621Z,19.73
2022-11-30T04:40:53.794Z,25.92
2022-11-30T04:43:21.730Z,26.55
2022-11-30T04:45:49.323Z,24.88
2022-11-30T04:48:19.410Z,25.98
2022-11-30T04:50:46.222Z,26.48
2022-11-30T04:53:13.006Z,20.98
2022-11-30T04:55:39.874Z,23.10
2022-11-30T04:58:07.323Z,24.80
2022-11-30T05:00:34.832Z,26.73
2022-11-30T05:03:02.144Z,22.67
2022-11-30T05:05:28.894Z,23.73
2022-11-30T05:07:57.724Z,21.15
2022-11-30T05:10:24.923Z,23.63
2022-11-30T05:12:51.951Z,24.25
2022-11-30T05:15:18.736Z,23.38
2022-11-30T05:17:45.623Z,23.33
2022-11-30T05:20:12.687Z,23.75
2022-11-30T05:22:39.646Z,23.40
2022-11-30T05:27:35.405Z,24.15
2022-11-30T05:30:02.534Z,25.83
2022-11-30T05:32:29.499Z,24.55
2022-11-30T05:34:56.420Z,25.70
2022-11-30T05:39:50.085Z,20.45
2022-11-30T05:42:18.588Z,26.48
2022-11-30T05:44:46.006Z,29.70
2022-11-30T05:47:13.171Z,25.45
2022-11-30T05:52:07.101Z,22.55
2022-11-30T05:54:35.217Z,22.48
2022-11-30T05:57:02.271Z,25.17
2022-11-30T05:59:29.279Z,26.08
2022-11-30T06:04:23.232Z,22.20
2022-11-30T06:06:52.316Z,24.80
2022-11-30T06:09:19.124Z,26.73
2022-11-30T06:11:45.921Z,24.88
2022-11-30T06:14:12.902Z,30.25
2022-11-30T06:19:07.233Z,23.58
2022-11-30T06:21:34.494Z,25.02
2022-11-30T06:24:01.426Z,24.02
2022-11-30T06:26:28.214Z,28.00
2022-11-30T06:28:55.122Z,27.55
2022-11-30T06:31:21.832Z,28.42
2022-11-30T06:33:49.070Z,32.05
2022-11-30T06:36:22.769Z,26.20
2022-11-30T06:38:49.932Z,27.10
2022-11-30T06:41:16.994Z,29.00
2022-11-30T06:43:43.812Z,27.10
2022-11-30T06:46:11.273Z,30.48
2022-11-30T06:48:38.192Z,29.92
2022-11-30T06:51:06.719Z,25.95
2022-11-30T06:53:33.592Z,27.25
2022-11-30T06:56:09.627Z,31.27
2022-11-30T06:58:41.597Z,38.90
2022-11-30T07:01:13.714Z,35.65
2022-11-30T07:03:41.566Z,37.97
2022-11-30T07:06:13.777Z,34.00
2022-11-30T07:08:42.058Z,35.28
2022-11-30T07:11:10.668Z,28.27
2022-11-30T07:13:37.955Z,34.35
2022-11-30T07:16:07.103Z,32.83
2022-11-30T07:18:34.904Z,33.75
2022-11-30T07:21:07.674Z,28.10
2022-11-30T07:23:56.768Z,30.90
2022-11-30T07:26:25.238Z,34.50
2022-11-30T07:28:55.164Z,30.38
2022-11-30T07:31:35.906Z,31.92
2022-11-30T07:34:10.566Z,32.97
2022-11-30T07:36:37.758Z,32.15
2022-11-30T07:39:04.978Z,25.33
2022-11-30T07:41:31.822Z,30.52
2022-11-30T07:44:04.864Z,26.88
2022-11-30T07:46:33.583Z,24.52
2022-11-30T07:49:00.413Z,26.00
2022-11-30T07:51:27.198Z,33.80
2022-11-30T07:53:56.656Z,32.20
2022-11-30T07:56:24.084Z,35.70
2022-11-30T07:58:54.609Z,29.27
2022-11-30T08:01:23.296Z,35.17
2022-11-30T08:03:51.448Z,30.80
2022-11-30T08:06:21.087Z,25.92
2022-11-30T08:08:49.680Z,27.88
2022-11-30T08:11:19.293Z,26.20
2022-11-30T08:13:46.166Z,29.77
2022-11-30T08:18:46.055Z,29.35
2022-11-30T08:21:18.853Z,29.25
2022-11-30T08:23:51.583Z,31.35
2022-11-30T08:26:21.448Z,23.52
2022-11-30T08:28:51.626Z,32.53
2022-11-30T08:36:56.277Z,26.70
2022-11-30T08:39:23.793Z,24.50
2022-11-30T08:41:52.016Z,24.23
2022-11-30T08:44:18.967Z,24.92
2022-11-30T08:54:55.310Z,29.38
2022-11-30T08:57:29.291Z,30.85
2022-11-30T08:59:56.078Z,27.33
2022-11-30T09:02:25.282Z,25.77
2022-11-30T09:04:53.523Z,21.83
2022-11-30T09:07:20.386Z,22.77
2022-11-30T09:12:14.378Z,24.83
2022-11-30T09:17:08.651Z,22.23
2022-11-30T09:19:36.511Z,24.67
2022-11-30T09:22:03.408Z,28.05
2022-11-30T09:26:57.602Z,25.98
2022-11-30T09:29:25.667Z,30.48
2022-11-30T09:34:19.651Z,31.20
2022-11-30T09:36:47.589Z,36.15
2022-11-30T09:39:19.067Z,39.60
2022-11-30T09:42:06.755Z,26.35
2022-11-30T09:44:51.024Z,35.55
2022-11-30T09:47:37.713Z,28.92
2022-11-30T09:50:12.494Z,30.27
2022-11-30T09:52:46.809Z,36.53
2022-11-30T09:55:23.750Z,35.50
2022-11-30T09:57:55.267Z,33.90
2022-11-30T10:00:24.118Z,34.47
2022-11-30T10:02:53.711Z,35.13
2022-11-30T10:05:47.926Z,36.83
2022-11-30T10:08:35.491Z,29.75
2022-11-30T10:11:18.879Z,31.17
2022-11-30T10:14:23.385Z,30.08
2022-11-30T10:17:05.639Z,31.10
2022-11-30T10:19:46.172Z,41.33
2022-11-30T10:22:21.854Z,31.17
2022-11-30T10:25:11.889Z,28.25
2022-11-30T10:28:12.674Z,28.50
2022-11-30T10:30:49.518Z,25.67
2022-11-30T10:33:20.191Z,25.33
2022-11-30T10:35:51.694Z,25.65
2022-11-30T10:38:25.475Z,22.98
2022-11-30T10:41:14.607Z,21.77
2022-11-30T10:44:16.701Z,18.30
2022-11-30T10:46:53.051Z,21.08
2022-11-30T10:49:20.676Z,21.17
2022-11-30T10:51:53.785Z,20.83
2022-11-30T10:54:22.614Z,22.02
2022-11-30T10:56:49.874Z,23.50
2022-11-30T10:59:33.208Z,25.50
2022-11-30T11:02:00.088Z,23.67
2022-11-30T11:06:58.679Z,18.30
2022-11-30T11:10:01.704Z,19.05
2022-11-30T11:12:30.956Z,17.88
2022-11-30T11:15:15.129Z,19.70
2022-11-30T11:17:41.919Z,20.40
2022-11-30T11:20:28.654Z,18.25
2022-11-30T11:22:55.482Z,20.50
2022-11-30T11:25:24.735Z,21.23
2022-11-30T11:27:59.535Z,23.85
2022-11-30T11:30:26.214Z,19.35
2022-11-30T11:33:18.948Z,20.17
2022-11-30T11:35:47.217Z,21.95
2022-11-30T11:38:28.237Z,19.85
2022-11-30T11:41:01.256Z,18.35
2022-11-30T11:43:31.438Z,21.60
2022-11-30T11:46:02.977Z,18.73
2022-11-30T11:48:38.012Z,20.00
2022-11-30T11:51:08.402Z,29.45
2022-11-30T11:53:53.078Z,38.85
2022-11-30T11:56:25.087Z,31.02
2022-11-30T11:58:54.965Z,21.77
2022-11-30T12:01:47.503Z,18.83
2022-11-30T12:04:52.972Z,17.80
2022-11-30T12:07:27.294Z,23.13
2022-11-30T12:09:56.565Z,21.08
2022-11-30T12:12:23.448Z,20.63
2022-11-30T12:17:34.468Z,19.17
2022-11-30T12:20:17.495Z,22.38
2022-11-30T12:23:05.063Z,22.27
2022-11-30T12:25:41.036Z,21.27
2022-11-30T12:28:56.182Z,25.25
2022-11-30T12:31:30.972Z,26.27
2022-11-30T12:34:17.334Z,23.92
2022-11-30T12:37:06.247Z,23.45
2022-11-30T12:39:41.857Z,26.10
2022-11-30T12:42:25.494Z,29.55
2022-11-30T12:45:25.307Z,24.98
2022-11-30T12:48:01.139Z,22.88
2022-11-30T12:50:46.858Z,24.23
2022-11-30T12:53:29.658Z,27.02
2022-11-30T12:56:19.394Z,34.45
2022-11-30T12:59:15.528Z,26.63
2022-11-30T13:02:07.384Z,26.52
2022-11-30T13:04:53.372Z,21.30
2022-11-30T13:07:32.346Z,25.25
2022-11-30T13:10:04.075Z,22.55
2022-11-30T13:12:38.990Z,21.48
2022-11-30T13:15:15.745Z,26.52
2022-11-30T13:17:45.353Z,23.42
2022-11-30T13:20:14.315Z,25.08
2022-11-30T13:22:48.240Z,22.20
2022-11-30T13:26:07.274Z,23.30
2022-11-30T13:28:46.844Z,24.27
2022-11-30T13:31:27.702Z,23.92
2022-11-30T13:33:54.493Z,23.33
2022-11-30T13:36:40.235Z,24.52
2022-11-30T13:39:21.346Z,22.55
2022-11-30T13:42:00.451Z,23.88
2022-11-30T13:44:32.582Z,27.20
2022-11-30T13:47:24.117Z,23.55
2022-11-30T13:49:56.724Z,27.15
2022-11-30T13:52:58.131Z,24.05
2022-11-30T13:55:43.300Z,24.42
2022-11-30T13:58:12.243Z,21.80
2022-11-30T14:00:40.568Z,24.38
2022-11-30T14:03:22.815Z,23.50
2022-11-30T14:05:56.991Z,21.55
2022-11-30T14:08:23.775Z,21.52
2022-11-30T14:10:51.741Z,23.55
2022-11-30T14:13:22.753Z,25.80
2022-11-30T14:15:57.082Z,25.98
2022-11-30T14:18:31.433Z,22.55
2022-11-30T14:21:12.907Z,24.08
2022-11-30T14:23:39.762Z,25.13
2022-11-30T14:26:13.622Z,28.92
2022-11-30T14:28:54.280Z,23.77
2022-11-30T14:31:25.210Z,26.65
2022-11-30T14:33:57.618Z,24.70
2022-11-30T14:36:32.959Z,21.88
2022-11-30T14:38:59.736Z,21.60
2022-11-30T14:41:28.836Z,22.98
2022-11-30T14:44:00.761Z,25.27
2022-11-30T14:46:27.864Z,21.55
2022-11-30T14:49:22.186Z,21.27
2022-11-30T14:52:00.749Z,21.42
2022-11-30T14:55:06.558Z,18.88
2022-11-30T14:58:04.008Z,22.67
2022-11-30T15:00:39.647Z,21.95
2022-11-30T15:03:40.238Z,21.83
2022-11-30T15:06:08.305Z,23.63
2022-11-30T15:08:42.693Z,22.55
2022-11-30T15:11:12.648Z,22.27
2022-11-30T15:13:42.970Z,23.98
2022-11-30T15:16:20.860Z,21.98
2022-11-30T15:18:48.830Z,24.35
2022-11-30T15:21:27.894Z,29.80
2022-11-30T15:23:56.878Z,21.92
2022-11-30T15:26:50.014Z,23.95
2022-11-30T15:29:19.996Z,23.90
2022-11-30T15:31:49.775Z,22.55
2022-11-30T15:34:25.934Z,21.70
2022-11-30T15:36:58.374Z,20.60
2022-11-30T15:39:27.696Z,22.63
2022-11-30T15:42:02.901Z,25.17
2022-11-30T15:44:40.264Z,24.40
2022-11-30T15:47:38.067Z,31.40
2022-11-30T15:50:26.733Z,41.10
2022-11-30T15:52:58.003Z,39.42
2022-11-30T15:55:47.468Z,40.28
2022-11-30T15:58:28.036Z,49.67
2022-11-30T16:01:20.561Z,37.45
2022-11-30T16:03:57.976Z,39.38
2022-11-30T16:06:34.636Z,33.78
2022-11-30T16:09:06.578Z,31.73
2022-11-30T16:11:34.562Z,35.30
2022-11-30T16:14:01.606Z,25.48
2022-11-30T16:16:31.407Z,24.27
2022-11-30T16:18:58.410Z,24.52
2022-11-30T16:23:52.426Z,22.38
2022-11-30T16:29:06.617Z,20.55
2022-11-30T16:31:35.141Z,19.73
2022-11-30T16:34:02.055Z,20.58
2022-11-30T16:36:30.239Z,18.08
2022-11-30T16:38:57.897Z,20.98
2022-11-30T16:41:27.112Z,20.65
2022-11-30T16:43:56.219Z,21.33
2022-11-30T16:46:25.562Z,19.77
2022-11-30T16:48:52.619Z,21.30
2022-11-30T16:51:28.666Z,22.20
2022-11-30T16:53:55.763Z,19.63
2022-11-30T16:56:23.122Z,21.10
2022-11-30T16:58:49.996Z,19.58
2022-11-30T17:04:29.582Z,20.20
2022-11-30T17:07:02.209Z,18.23
2022-11-30T17:09:30.321Z,19.45
2022-11-30T17:11:57.257Z,17.80
2022-11-30T17:14:24.123Z,18.55
2022-11-30T17:16:50.974Z,19.08
2022-11-30T17:19:18.706Z,20.73
2022-11-30T17:21:45.795Z,20.77
2022-11-30T17:24:12.822Z,28.23
2022-11-30T17:29:06.616Z,26.35
2022-11-30T17:31:33.444Z,25.83
2022-11-30T17:34:00.542Z,23.45
2022-11-30T17:38:56.691Z,23.73
2022-11-30T17:41:23.831Z,19.48
2022-11-30T17:43:52.057Z,27.95
2022-11-30T17:46:21.115Z,26.98
2022-11-30T17:48:49.304Z,25.42
2022-11-30T17:51:16.619Z,25.60
2022-11-30T17:53:44.422Z,26.85
2022-11-30T17:56:16.298Z,22.05
2022-11-30T17:58:44.759Z,21.77
2022-11-30T18:01:26.348Z,19.65
2022-11-30T18:03:54.032Z,24.38
2022-11-30T18:06:21.103Z,21.05
2022-11-30T18:11:21.517Z,16.77
2022-11-30T18:13:51.512Z,22.13
2022-11-30T18:16:20.623Z,17.67
2022-11-30T18:18:48.611Z,22.25
2022-11-30T18:21:18.373Z,20.52
2022-11-30T18:23:45.644Z,20.65
2022-11-30T18:26:14.773Z,18.23
2022-11-30T18:28:41.944Z,17.58
2022-11-30T18:31:09.320Z,21.55
2022-11-30T18:33:38.224Z,20.02
2022-11-30T18:36:07.628Z,22.83
2022-11-30T18:38:37.884Z,26.27
2022-11-30T18:41:06.178Z,27.90
2022-11-30T18:43:33.965Z,24.05
2022-11-30T18:46:19.033Z,26.50
2022-11-30T18:48:49.759Z,29.90
2022-11-30T18:51:19.735Z,30.70
2022-11-30T18:53:49.180Z,28.60
2022-11-30T18:56:20.612Z,23.48
2022-11-30T18:58:48.297Z,22.40
2022-11-30T19:01:18.137Z,22.88
2022-11-30T19:03:59.630Z,37.78
2022-11-30T19:06:32.599Z,34.88
2022-11-30T19:09:10.793Z,28.10
2022-11-30T19:11:41.354Z,25.73
2022-11-30T19:14:08.652Z,28.08
2022-11-30T19:16:35.756Z,26.15
2022-11-30T19:19:06.063Z,20.35
2022-11-30T19:21:33.401Z,24.40
2022-11-30T19:24:01.043Z,20.88
2022-11-30T19:26:28.505Z,22.90
2022-11-30T19:28:57.590Z,25.35
2022-11-30T19:31:25.416Z,24.30
2022-11-30T19:33:54.521Z,24.90
2022-11-30T19:36:27.481Z,23.35
2022-11-30T19:38:55.258Z,24.77
2022-11-30T19:41:22.481Z,22.27
2022-11-30T19:44:01.080Z,19.60
2022-11-30T19:46:31.851Z,17.17
2022-11-30T19:49:00.752Z,21.27
2022-11-30T19:51:28.816Z,16.73
2022-11-30T19:53:57.502Z,17.17
2022-11-30T19:56:25.662Z,20.40
2022-11-30T19:58:53.132Z,17.77
2022-11-30T20:01:24.657Z,16.73
2022-11-30T20:03:52.967Z,15.95
2022-11-30T20:06:20.704Z,16.67
2022-11-30T20:08:47.778Z,16.42
2022-11-30T20:13:43.652Z,23.40
2022-11-30T20:16:15.602Z,21.95
2022-11-30T20:18:46.280Z,19.23
2022-11-30T20:21:22.489Z,16.10
2022-11-30T20:23:50.133Z,15.50
2022-11-30T20:26:30.084Z,15.75
2022-11-30T20:28:58.533Z,17.40
2022-11-30T20:31:26.792Z,16.95
2022-11-30T20:33:54.182Z,15.38
2022-11-30T20:36:21.726Z,17.45
2022-11-30T20:38:48.929Z,16.77
2022-11-30T20:41:23.763Z,13.18
2022-11-30T20:43:50.927Z,16.65
2022-11-30T20:46:21.210Z,13.70
2022-11-30T20:48:48.597Z,15.07
2022-11-30T20:51:33.676Z,14.60
2022-11-30T20:54:03.622Z,18.67
2022-11-30T20:56:30.663Z,16.02
2022-11-30T21:01:27.343Z,16.02
2022-11-30T21:03:54.606Z,16.13
2022-11-30T21:06:21.439Z,17.60
2022-11-30T21:08:48.344Z,14.88
2022-11-30T21:11:18.255Z,18.02
2022-11-30T21:13:47.020Z,14.77
2022-11-30T21:16:15.984Z,18.20
2022-11-30T21:18:44.881Z,16.45
2022-11-30T21:21:23.443Z,20.02
2022-11-30T21:23:51.036Z,16.92
2022-11-30T21:26:26.160Z,16.70
2022-11-30T21:28:55.875Z,17.63
